sensor_id;sensor_type;location;lat;lon;timestamp;temperature;humidity
19330;DHT22;9799;48.214;16.388;2023-12-14T00:02:12;6.10;99.90
19330;DHT22;9799;48.214;16.388;2023-12-14T00:05:33;6.10;99.90
19330;DHT22;9799;48.214;16.388;2023-12-14T00:08:56;6.00;99.90
19330;DHT22;9799;48.214;16.388;2023-12-14T00:12:17;6.00;99.90
19330;DHT22;9799;48.214;16.388;2023-12-14T00:15:39;6.20;99.90
19330;DHT22;9799;48.214;16.388;2023-12-14T00:19:00;6.00;99.90
19330;DHT22;9799;48.214;16.388;2023-12-14T00:22:21;6.00;99.90
19330;DHT22;9799;48.214;16.388;2023-12-14T00:25:43;5.90;99.90
19330;DHT22;9799;48.214;16.388;2023-12-14T00:29:05;6.00;99.90
19330;DHT22;9799;48.214;16.388;2023-12-14T00:32:26;6.10;99.90
19330;DHT22;9799;48.214;16.388;2023-12-14T00:35:47;6.00;99.90
19330;DHT22;9799;48.214;16.388;2023-12-14T00:39:08;5.90;99.90
19330;DHT22;9799;48.214;16.388;2023-12-14T00:42:30;5.80;99.90
19330;DHT22;9799;48.214;16.388;2023-12-14T00:45:51;5.90;99.90
19330;DHT22;9799;48.214;16.388;2023-12-14T00:49:13;5.90;99.90
19330;DHT22;9799;48.214;16.388;2023-12-14T00:52:34;5.90;99.90
19330;DHT22;9799;48.214;16.388;2023-12-14T00:55:56;5.90;99.90
19330;DHT22;9799;48.214;16.388;2023-12-14T00:59:18;6.00;99.90
19330;DHT22;9799;48.214;16.388;2023-12-14T01:02:39;6.00;99.90
19330;DHT22;9799;48.214;16.388;2023-12-14T01:06:00;6.00;99.90
19330;DHT22;9799;48.214;16.388;2023-12-14T01:09:21;6.00;99.90
19330;DHT22;9799;48.214;16.388;2023-12-14T01:12:43;5.90;99.90
19330;DHT22;9799;48.214;16.388;2023-12-14T01:16:06;5.90;99.90
19330;DHT22;9799;48.214;16.388;2023-12-14T01:19:27;6.00;99.90
19330;DHT22;9799;48.214;16.388;2023-12-14T01:22:48;6.20;99.90
19330;DHT22;9799;48.214;16.388;2023-12-14T01:26:09;6.10;99.90
19330;DHT22;9799;48.214;16.388;2023-12-14T01:29:31;6.20;99.90
19330;DHT22;9799;48.214;16.388;2023-12-14T01:32:53;6.40;99.90
19330;DHT22;9799;48.214;16.388;2023-12-14T01:36:20;6.50;99.90
19330;DHT22;9799;48.214;16.388;2023-12-14T01:39:41;6.30;99.90
19330;DHT22;9799;48.214;16.388;2023-12-14T01:43:07;6.10;99.90
19330;DHT22;9799;48.214;16.388;2023-12-14T01:46:28;6.10;99.90
19330;DHT22;9799;48.214;16.388;2023-12-14T01:49:51;6.30;99.90
19330;DHT22;9799;48.214;16.388;2023-12-14T01:53:12;6.50;99.90
19330;DHT22;9799;48.214;16.388;2023-12-14T01:56:33;6.70;99.90
19330;DHT22;9799;48.214;16.388;2023-12-14T01:59:54;6.80;99.90
19330;DHT22;9799;48.214;16.388;2023-12-14T02:03:16;6.70;99.90
19330;DHT22;9799;48.214;16.388;2023-12-14T02:06:38;6.60;99.90
19330;DHT22;9799;48.214;16.388;2023-12-14T02:09:59;6.70;99.90
19330;DHT22;9799;48.214;16.388;2023-12-14T02:13:20;6.60;99.90
19330;DHT22;9799;48.214;16.388;2023-12-14T02:16:42;6.70;99.90
19330;DHT22;9799;48.214;16.388;2023-12-14T02:20:03;6.80;99.90
19330;DHT22;9799;48.214;16.388;2023-12-14T02:23:26;6.60;99.90
19330;DHT22;9799;48.214;16.388;2023-12-14T02:26:47;6.40;99.90
19330;DHT22;9799;48.214;16.388;2023-12-14T02:30:09;6.30;99.90
19330;DHT22;9799;48.214;16.388;2023-12-14T02:33:30;6.20;99.90
19330;DHT22;9799;48.214;16.388;2023-12-14T02:36:52;6.20;99.90
19330;DHT22;9799;48.214;16.388;2023-12-14T02:40:14;6.20;99.90
19330;DHT22;9799;48.214;16.388;2023-12-14T02:43:36;6.20;99.90
19330;DHT22;9799;48.214;16.388;2023-12-14T02:46:57;6.30;99.90
19330;DHT22;9799;48.214;16.388;2023-12-14T02:50:18;6.50;99.90
19330;DHT22;9799;48.214;16.388;2023-12-14T02:53:39;6.70;99.90
19330;DHT22;9799;48.214;16.388;2023-12-14T02:57:02;6.90;99.90
19330;DHT22;9799;48.214;16.388;2023-12-14T03:00:23;7.00;99.90
19330;DHT22;9799;48.214;16.388;2023-12-14T03:03:45;6.70;99.90
19330;DHT22;9799;48.214;16.388;2023-12-14T03:07:06;6.40;99.90
19330;DHT22;9799;48.214;16.388;2023-12-14T03:10:27;6.30;99.90
19330;DHT22;9799;48.214;16.388;2023-12-14T03:13:50;6.30;99.90
19330;DHT22;9799;48.214;16.388;2023-12-14T03:17:11;6.50;99.90
19330;DHT22;9799;48.214;16.388;2023-12-14T03:20:32;6.70;99.90
19330;DHT22;9799;48.214;16.388;2023-12-14T03:23:54;6.70;99.90
19330;DHT22;9799;48.214;16.388;2023-12-14T03:27:14;6.70;99.90
19330;DHT22;9799;48.214;16.388;2023-12-14T03:30:37;6.70;99.90
19330;DHT22;9799;48.214;16.388;2023-12-14T03:33:58;6.60;99.90
19330;DHT22;9799;48.214;16.388;2023-12-14T03:37:19;6.60;99.90
19330;DHT22;9799;48.214;16.388;2023-12-14T03:40:41;6.50;99.90
19330;DHT22;9799;48.214;16.388;2023-12-14T03:44:02;6.50;99.90
19330;DHT22;9799;48.214;16.388;2023-12-14T03:47:25;6.60;99.90
19330;DHT22;9799;48.214;16.388;2023-12-14T03:50:46;6.60;99.90
19330;DHT22;9799;48.214;16.388;2023-12-14T03:54:07;6.60;99.90
19330;DHT22;9799;48.214;16.388;2023-12-14T03:57:28;6.90;99.90
19330;DHT22;9799;48.214;16.388;2023-12-14T04:00:49;7.20;99.90
19330;DHT22;9799;48.214;16.388;2023-12-14T04:04:12;7.40;99.90
19330;DHT22;9799;48.214;16.388;2023-12-14T04:07:33;7.70;99.90
19330;DHT22;9799;48.214;16.388;2023-12-14T04:10:55;7.80;99.90
19330;DHT22;9799;48.214;16.388;2023-12-14T04:14:16;7.80;99.90
19330;DHT22;9799;48.214;16.388;2023-12-14T04:17:38;7.90;99.90
19330;DHT22;9799;48.214;16.388;2023-12-14T04:21:00;8.00;99.90
19330;DHT22;9799;48.214;16.388;2023-12-14T04:24:24;8.00;99.90
19330;DHT22;9799;48.214;16.388;2023-12-14T04:27:45;8.00;99.90
19330;DHT22;9799;48.214;16.388;2023-12-14T04:31:06;8.10;99.90
19330;DHT22;9799;48.214;16.388;2023-12-14T04:34:27;8.10;99.90
19330;DHT22;9799;48.214;16.388;2023-12-14T04:37:50;8.10;99.90
19330;DHT22;9799;48.214;16.388;2023-12-14T04:41:11;8.10;99.90
19330;DHT22;9799;48.214;16.388;2023-12-14T04:44:32;8.10;99.90
19330;DHT22;9799;48.214;16.388;2023-12-14T04:47:53;8.10;99.90
19330;DHT22;9799;48.214;16.388;2023-12-14T04:51:15;8.00;99.90
19330;DHT22;9799;48.214;16.388;2023-12-14T04:54:37;8.00;99.90
19330;DHT22;9799;48.214;16.388;2023-12-14T04:58:00;7.90;99.90
19330;DHT22;9799;48.214;16.388;2023-12-14T05:01:21;7.90;99.90
19330;DHT22;9799;48.214;16.388;2023-12-14T05:04:42;7.90;99.90
19330;DHT22;9799;48.214;16.388;2023-12-14T05:08:04;7.80;99.90
19330;DHT22;9799;48.214;16.388;2023-12-14T05:11:26;7.80;99.90
19330;DHT22;9799;48.214;16.388;2023-12-14T05:14:47;8.00;99.90
19330;DHT22;9799;48.214;16.388;2023-12-14T05:18:08;8.10;99.90
19330;DHT22;9799;48.214;16.388;2023-12-14T05:21:29;8.10;99.90
19330;DHT22;9799;48.214;16.388;2023-12-14T05:24:51;8.20;99.90
19330;DHT22;9799;48.214;16.388;2023-12-14T05:28:13;8.30;99.90
19330;DHT22;9799;48.214;16.388;2023-12-14T05:31:34;8.30;99.90
19330;DHT22;9799;48.214;16.388;2023-12-14T05:34:55;8.40;99.90
19330;DHT22;9799;48.214;16.388;2023-12-14T05:38:16;8.40;99.90
19330;DHT22;9799;48.214;16.388;2023-12-14T05:41:40;8.50;99.90
19330;DHT22;9799;48.214;16.388;2023-12-14T05:45:03;8.50;99.90
19330;DHT22;9799;48.214;16.388;2023-12-14T05:48:24;8.50;99.90
19330;DHT22;9799;48.214;16.388;2023-12-14T05:51:46;8.40;99.90
19330;DHT22;9799;48.214;16.388;2023-12-14T05:55:08;8.40;99.90
19330;DHT22;9799;48.214;16.388;2023-12-14T05:58:30;8.50;99.90
19330;DHT22;9799;48.214;16.388;2023-12-14T06:01:56;8.50;99.90
19330;DHT22;9799;48.214;16.388;2023-12-14T06:05:18;8.50;99.90
19330;DHT22;9799;48.214;16.388;2023-12-14T06:08:39;8.50;99.90
19330;DHT22;9799;48.214;16.388;2023-12-14T06:12:00;8.50;99.90
19330;DHT22;9799;48.214;16.388;2023-12-14T06:15:21;8.50;99.90
19330;DHT22;9799;48.214;16.388;2023-12-14T06:18:44;8.50;99.90
19330;DHT22;9799;48.214;16.388;2023-12-14T06:22:05;8.50;99.90
19330;DHT22;9799;48.214;16.388;2023-12-14T06:25:26;8.50;99.90
19330;DHT22;9799;48.214;16.388;2023-12-14T06:28:47;8.50;99.90
19330;DHT22;9799;48.214;16.388;2023-12-14T06:32:08;8.50;99.90
19330;DHT22;9799;48.214;16.388;2023-12-14T06:35:31;8.40;99.90
19330;DHT22;9799;48.214;16.388;2023-12-14T06:38:52;8.40;99.90
19330;DHT22;9799;48.214;16.388;2023-12-14T06:42:13;8.40;99.90
19330;DHT22;9799;48.214;16.388;2023-12-14T06:45:36;8.40;99.90
19330;DHT22;9799;48.214;16.388;2023-12-14T06:48:58;8.40;99.90
19330;DHT22;9799;48.214;16.388;2023-12-14T06:52:20;8.40;99.90
19330;DHT22;9799;48.214;16.388;2023-12-14T06:55:41;8.40;99.90
19330;DHT22;9799;48.214;16.388;2023-12-14T06:59:02;8.40;99.90
19330;DHT22;9799;48.214;16.388;2023-12-14T07:02:23;8.30;99.90
19330;DHT22;9799;48.214;16.388;2023-12-14T07:05:44;8.30;99.90
19330;DHT22;9799;48.214;16.388;2023-12-14T07:09:07;8.30;99.90
19330;DHT22;9799;48.214;16.388;2023-12-14T07:12:28;8.30;99.90
19330;DHT22;9799;48.214;16.388;2023-12-14T07:15:49;8.30;99.90
19330;DHT22;9799;48.214;16.388;2023-12-14T07:19:10;8.30;99.90
19330;DHT22;9799;48.214;16.388;2023-12-14T07:22:32;8.20;99.90
19330;DHT22;9799;48.214;16.388;2023-12-14T07:25:54;8.30;99.90
19330;DHT22;9799;48.214;16.388;2023-12-14T07:29:15;8.30;99.90
19330;DHT22;9799;48.214;16.388;2023-12-14T07:32:36;8.30;99.90
19330;DHT22;9799;48.214;16.388;2023-12-14T07:35:58;8.20;99.90
19330;DHT22;9799;48.214;16.388;2023-12-14T07:39:19;8.20;99.90
19330;DHT22;9799;48.214;16.388;2023-12-14T07:42:41;8.20;99.90
19330;DHT22;9799;48.214;16.388;2023-12-14T07:46:03;8.30;99.90
19330;DHT22;9799;48.214;16.388;2023-12-14T07:49:24;8.30;99.90
19330;DHT22;9799;48.214;16.388;2023-12-14T07:52:45;8.20;99.90
19330;DHT22;9799;48.214;16.388;2023-12-14T07:56:07;8.30;99.90
19330;DHT22;9799;48.214;16.388;2023-12-14T07:59:29;8.30;99.90
19330;DHT22;9799;48.214;16.388;2023-12-14T08:02:50;8.30;99.90
19330;DHT22;9799;48.214;16.388;2023-12-14T08:06:12;8.30;99.90
19330;DHT22;9799;48.214;16.388;2023-12-14T08:09:34;8.30;99.90
19330;DHT22;9799;48.214;16.388;2023-12-14T08:12:55;8.20;99.90
19330;DHT22;9799;48.214;16.388;2023-12-14T08:16:17;8.30;99.90
19330;DHT22;9799;48.214;16.388;2023-12-14T08:19:39;8.40;99.90
19330;DHT22;9799;48.214;16.388;2023-12-14T08:23:00;8.40;99.90
19330;DHT22;9799;48.214;16.388;2023-12-14T08:26:21;8.30;99.90
19330;DHT22;9799;48.214;16.388;2023-12-14T08:29:43;8.30;99.90
19330;DHT22;9799;48.214;16.388;2023-12-14T08:33:07;8.30;99.90
19330;DHT22;9799;48.214;16.388;2023-12-14T08:36:28;8.40;99.90
19330;DHT22;9799;48.214;16.388;2023-12-14T08:39:50;8.40;99.90
19330;DHT22;9799;48.214;16.388;2023-12-14T08:43:11;8.40;99.90
19330;DHT22;9799;48.214;16.388;2023-12-14T08:46:38;8.40;99.90
19330;DHT22;9799;48.214;16.388;2023-12-14T08:50:01;8.40;99.90
19330;DHT22;9799;48.214;16.388;2023-12-14T08:53:22;8.40;99.90
19330;DHT22;9799;48.214;16.388;2023-12-14T08:56:43;8.40;99.90
19330;DHT22;9799;48.214;16.388;2023-12-14T09:00:06;8.50;99.90
19330;DHT22;9799;48.214;16.388;2023-12-14T09:03:27;8.50;99.90
19330;DHT22;9799;48.214;16.388;2023-12-14T09:06:50;8.50;99.90
19330;DHT22;9799;48.214;16.388;2023-12-14T09:10:11;8.50;99.90
19330;DHT22;9799;48.214;16.388;2023-12-14T09:13:32;8.40;99.90
19330;DHT22;9799;48.214;16.388;2023-12-14T09:16:54;8.50;99.90
19330;DHT22;9799;48.214;16.388;2023-12-14T09:20:15;8.50;99.90
19330;DHT22;9799;48.214;16.388;2023-12-14T09:23:38;8.60;99.90
19330;DHT22;9799;48.214;16.388;2023-12-14T09:27:00;8.70;99.90
19330;DHT22;9799;48.214;16.388;2023-12-14T09:30:21;8.70;99.90
19330;DHT22;9799;48.214;16.388;2023-12-14T09:33:43;8.60;99.90
19330;DHT22;9799;48.214;16.388;2023-12-14T09:37:04;8.60;99.90
19330;DHT22;9799;48.214;16.388;2023-12-14T09:40:27;8.60;99.90
19330;DHT22;9799;48.214;16.388;2023-12-14T09:43:48;8.60;99.90
19330;DHT22;9799;48.214;16.388;2023-12-14T09:47:09;8.60;99.90
19330;DHT22;9799;48.214;16.388;2023-12-14T09:50:31;8.70;99.90
19330;DHT22;9799;48.214;16.388;2023-12-14T09:53:52;8.70;99.90
19330;DHT22;9799;48.214;16.388;2023-12-14T09:57:20;8.70;99.90
19330;DHT22;9799;48.214;16.388;2023-12-14T10:00:41;8.80;99.90
19330;DHT22;9799;48.214;16.388;2023-12-14T10:04:09;8.80;99.90
19330;DHT22;9799;48.214;16.388;2023-12-14T10:07:31;8.70;99.90
19330;DHT22;9799;48.214;16.388;2023-12-14T10:10:53;8.70;99.90
19330;DHT22;9799;48.214;16.388;2023-12-14T10:14:21;8.80;99.90
19330;DHT22;9799;48.214;16.388;2023-12-14T10:17:42;8.80;99.90
19330;DHT22;9799;48.214;16.388;2023-12-14T10:21:06;8.80;99.90
19330;DHT22;9799;48.214;16.388;2023-12-14T10:24:27;8.80;99.90
19330;DHT22;9799;48.214;16.388;2023-12-14T10:27:50;8.90;99.90
19330;DHT22;9799;48.214;16.388;2023-12-14T10:31:14;8.90;99.90
19330;DHT22;9799;48.214;16.388;2023-12-14T10:34:35;8.90;99.90
19330;DHT22;9799;48.214;16.388;2023-12-14T10:38:00;9.00;99.90
19330;DHT22;9799;48.214;16.388;2023-12-14T10:41:22;9.00;99.90
19330;DHT22;9799;48.214;16.388;2023-12-14T10:44:44;9.10;99.90
19330;DHT22;9799;48.214;16.388;2023-12-14T10:48:07;9.20;99.90
19330;DHT22;9799;48.214;16.388;2023-12-14T10:51:28;9.30;99.90
19330;DHT22;9799;48.214;16.388;2023-12-14T10:54:53;9.40;99.90
19330;DHT22;9799;48.214;16.388;2023-12-14T10:58:17;9.30;99.90
19330;DHT22;9799;48.214;16.388;2023-12-14T11:01:40;9.40;99.90
19330;DHT22;9799;48.214;16.388;2023-12-14T11:05:03;9.40;99.90
19330;DHT22;9799;48.214;16.388;2023-12-14T11:08:29;9.40;99.90
19330;DHT22;9799;48.214;16.388;2023-12-14T11:11:56;9.40;99.90
19330;DHT22;9799;48.214;16.388;2023-12-14T11:15:18;9.40;99.90
19330;DHT22;9799;48.214;16.388;2023-12-14T11:18:39;9.40;99.90
19330;DHT22;9799;48.214;16.388;2023-12-14T11:22:23;9.50;99.90
19330;DHT22;9799;48.214;16.388;2023-12-14T11:25:48;9.40;99.90
19330;DHT22;9799;48.214;16.388;2023-12-14T11:29:10;9.40;99.90
19330;DHT22;9799;48.214;16.388;2023-12-14T11:32:31;9.40;99.90
19330;DHT22;9799;48.214;16.388;2023-12-14T11:35:52;9.50;99.90
19330;DHT22;9799;48.214;16.388;2023-12-14T11:39:15;9.50;99.90
19330;DHT22;9799;48.214;16.388;2023-12-14T11:42:36;9.70;99.90
19330;DHT22;9799;48.214;16.388;2023-12-14T11:45:57;9.50;99.90
19330;DHT22;9799;48.214;16.388;2023-12-14T11:49:19;9.40;99.90
19330;DHT22;9799;48.214;16.388;2023-12-14T11:52:40;9.40;99.90
19330;DHT22;9799;48.214;16.388;2023-12-14T11:56:04;9.40;99.90
19330;DHT22;9799;48.214;16.388;2023-12-14T11:59:26;9.30;99.90
19330;DHT22;9799;48.214;16.388;2023-12-14T12:02:47;9.30;99.90
19330;DHT22;9799;48.214;16.388;2023-12-14T12:06:09;9.40;99.90
19330;DHT22;9799;48.214;16.388;2023-12-14T12:09:42;9.40;99.90
19330;DHT22;9799;48.214;16.388;2023-12-14T12:13:06;9.40;99.90
19330;DHT22;9799;48.214;16.388;2023-12-14T12:16:27;9.30;99.90
19330;DHT22;9799;48.214;16.388;2023-12-14T12:19:49;9.30;99.90
19330;DHT22;9799;48.214;16.388;2023-12-14T12:23:10;9.40;99.90
19330;DHT22;9799;48.214;16.388;2023-12-14T12:26:31;9.40;99.90
19330;DHT22;9799;48.214;16.388;2023-12-14T12:29:54;9.50;99.90
19330;DHT22;9799;48.214;16.388;2023-12-14T12:33:15;9.50;99.90
19330;DHT22;9799;48.214;16.388;2023-12-14T12:36:36;9.40;99.90
19330;DHT22;9799;48.214;16.388;2023-12-14T12:39:57;9.30;99.90
19330;DHT22;9799;48.214;16.388;2023-12-14T12:43:18;9.40;99.90
19330;DHT22;9799;48.214;16.388;2023-12-14T12:46:41;9.40;99.90
19330;DHT22;9799;48.214;16.388;2023-12-14T12:50:02;9.40;99.90
19330;DHT22;9799;48.214;16.388;2023-12-14T12:53:24;9.50;99.90
19330;DHT22;9799;48.214;16.388;2023-12-14T12:56:46;9.50;99.90
19330;DHT22;9799;48.214;16.388;2023-12-14T13:00:09;9.40;99.90
19330;DHT22;9799;48.214;16.388;2023-12-14T13:03:32;9.40;99.90
19330;DHT22;9799;48.214;16.388;2023-12-14T13:06:53;9.30;99.90
19330;DHT22;9799;48.214;16.388;2023-12-14T13:10:15;9.30;99.90
19330;DHT22;9799;48.214;16.388;2023-12-14T13:13:37;9.30;99.90
19330;DHT22;9799;48.214;16.388;2023-12-14T13:16:58;9.30;99.90
19330;DHT22;9799;48.214;16.388;2023-12-14T13:20:21;9.30;99.90
19330;DHT22;9799;48.214;16.388;2023-12-14T13:23:42;9.30;99.90
19330;DHT22;9799;48.214;16.388;2023-12-14T13:27:04;9.30;99.90
19330;DHT22;9799;48.214;16.388;2023-12-14T13:30:25;9.20;99.90
19330;DHT22;9799;48.214;16.388;2023-12-14T13:33:47;9.20;99.90
19330;DHT22;9799;48.214;16.388;2023-12-14T13:37:10;9.30;99.90
19330;DHT22;9799;48.214;16.388;2023-12-14T13:40:31;9.30;99.90
19330;DHT22;9799;48.214;16.388;2023-12-14T13:43:52;9.30;99.90
19330;DHT22;9799;48.214;16.388;2023-12-14T13:47:13;9.20;99.90
19330;DHT22;9799;48.214;16.388;2023-12-14T13:50:35;9.20;99.90
19330;DHT22;9799;48.214;16.388;2023-12-14T13:53:58;9.30;99.90
19330;DHT22;9799;48.214;16.388;2023-12-14T13:57:19;9.30;99.90
19330;DHT22;9799;48.214;16.388;2023-12-14T14:00:41;9.20;99.90
19330;DHT22;9799;48.214;16.388;2023-12-14T14:04:02;9.20;99.90
19330;DHT22;9799;48.214;16.388;2023-12-14T14:07:23;9.20;99.90
19330;DHT22;9799;48.214;16.388;2023-12-14T14:10:45;9.10;99.90
19330;DHT22;9799;48.214;16.388;2023-12-14T14:14:07;9.10;99.90
19330;DHT22;9799;48.214;16.388;2023-12-14T14:17:28;9.10;99.90
19330;DHT22;9799;48.214;16.388;2023-12-14T14:20:49;9.10;99.90
19330;DHT22;9799;48.214;16.388;2023-12-14T14:24:10;9.10;99.90
19330;DHT22;9799;48.214;16.388;2023-12-14T14:27:33;9.20;99.90
19330;DHT22;9799;48.214;16.388;2023-12-14T14:30:54;9.20;99.90
19330;DHT22;9799;48.214;16.388;2023-12-14T14:34:15;9.20;99.90
19330;DHT22;9799;48.214;16.388;2023-12-14T14:37:37;9.10;99.90
19330;DHT22;9799;48.214;16.388;2023-12-14T14:40:58;9.20;99.90
19330;DHT22;9799;48.214;16.388;2023-12-14T14:44:20;9.10;99.90
19330;DHT22;9799;48.214;16.388;2023-12-14T14:47:42;9.10;99.90
19330;DHT22;9799;48.214;16.388;2023-12-14T14:51:03;9.00;99.90
19330;DHT22;9799;48.214;16.388;2023-12-14T14:54:24;9.00;99.90
19330;DHT22;9799;48.214;16.388;2023-12-14T14:57:45;9.00;99.90
19330;DHT22;9799;48.214;16.388;2023-12-14T15:01:08;8.90;99.90
19330;DHT22;9799;48.214;16.388;2023-12-14T15:04:29;8.90;99.90
19330;DHT22;9799;48.214;16.388;2023-12-14T15:07:52;9.00;99.90
19330;DHT22;9799;48.214;16.388;2023-12-14T15:11:14;8.90;99.90
19330;DHT22;9799;48.214;16.388;2023-12-14T15:14:35;8.90;99.90
19330;DHT22;9799;48.214;16.388;2023-12-14T15:17:58;8.90;99.90
19330;DHT22;9799;48.214;16.388;2023-12-14T15:21:19;8.90;99.90
19330;DHT22;9799;48.214;16.388;2023-12-14T15:24:40;8.90;99.90
19330;DHT22;9799;48.214;16.388;2023-12-14T15:28:01;8.90;99.90
19330;DHT22;9799;48.214;16.388;2023-12-14T15:31:22;8.90;99.90
19330;DHT22;9799;48.214;16.388;2023-12-14T15:34:45;8.80;99.90
19330;DHT22;9799;48.214;16.388;2023-12-14T15:38:06;8.90;99.90
19330;DHT22;9799;48.214;16.388;2023-12-14T15:41:27;8.90;99.90
19330;DHT22;9799;48.214;16.388;2023-12-14T15:44:49;9.00;99.90
19330;DHT22;9799;48.214;16.388;2023-12-14T15:48:10;8.90;99.90
19330;DHT22;9799;48.214;16.388;2023-12-14T15:51:33;8.90;99.90
19330;DHT22;9799;48.214;16.388;2023-12-14T15:54:54;8.90;99.90
19330;DHT22;9799;48.214;16.388;2023-12-14T15:58:15;9.00;99.90
19330;DHT22;9799;48.214;16.388;2023-12-14T16:01:36;8.90;99.90
19330;DHT22;9799;48.214;16.388;2023-12-14T16:05:00;8.90;99.90
19330;DHT22;9799;48.214;16.388;2023-12-14T16:08:22;8.90;99.90
19330;DHT22;9799;48.214;16.388;2023-12-14T16:11:43;8.90;99.90
19330;DHT22;9799;48.214;16.388;2023-12-14T16:15:06;8.90;99.90
19330;DHT22;9799;48.214;16.388;2023-12-14T16:18:27;8.90;99.90
19330;DHT22;9799;48.214;16.388;2023-12-14T16:21:48;9.00;99.90
19330;DHT22;9799;48.214;16.388;2023-12-14T16:25:12;9.00;99.90
19330;DHT22;9799;48.214;16.388;2023-12-14T16:28:33;8.90;99.90
19330;DHT22;9799;48.214;16.388;2023-12-14T16:31:54;8.90;99.90
19330;DHT22;9799;48.214;16.388;2023-12-14T16:35:15;8.90;99.90
19330;DHT22;9799;48.214;16.388;2023-12-14T16:38:37;8.90;99.90
19330;DHT22;9799;48.214;16.388;2023-12-14T16:41:59;9.00;99.90
19330;DHT22;9799;48.214;16.388;2023-12-14T16:45:22;9.00;99.90
19330;DHT22;9799;48.214;16.388;2023-12-14T16:48:43;9.10;99.90
19330;DHT22;9799;48.214;16.388;2023-12-14T16:52:04;9.00;99.90
19330;DHT22;9799;48.214;16.388;2023-12-14T16:55:26;9.00;99.90
19330;DHT22;9799;48.214;16.388;2023-12-14T16:58:49;9.00;99.90
19330;DHT22;9799;48.214;16.388;2023-12-14T17:02:10;8.90;99.90
19330;DHT22;9799;48.214;16.388;2023-12-14T17:05:33;8.90;99.90
19330;DHT22;9799;48.214;16.388;2023-12-14T17:08:54;8.90;99.90
19330;DHT22;9799;48.214;16.388;2023-12-14T17:12:15;8.90;99.90
19330;DHT22;9799;48.214;16.388;2023-12-14T17:15:37;8.90;99.90
19330;DHT22;9799;48.214;16.388;2023-12-14T17:18:59;8.90;99.90
19330;DHT22;9799;48.214;16.388;2023-12-14T17:22:20;8.80;99.90
19330;DHT22;9799;48.214;16.388;2023-12-14T17:25:41;8.80;99.90
19330;DHT22;9799;48.214;16.388;2023-12-14T17:29:02;8.80;99.90
19330;DHT22;9799;48.214;16.388;2023-12-14T17:32:27;8.80;99.90
19330;DHT22;9799;48.214;16.388;2023-12-14T17:35:48;8.90;99.90
19330;DHT22;9799;48.214;16.388;2023-12-14T17:39:09;8.80;99.90
19330;DHT22;9799;48.214;16.388;2023-12-14T17:42:32;8.80;99.90
19330;DHT22;9799;48.214;16.388;2023-12-14T17:45:55;8.80;99.90
19330;DHT22;9799;48.214;16.388;2023-12-14T17:49:17;8.80;99.90
19330;DHT22;9799;48.214;16.388;2023-12-14T17:52:39;8.80;99.90
19330;DHT22;9799;48.214;16.388;2023-12-14T17:56:00;8.90;99.90
19330;DHT22;9799;48.214;16.388;2023-12-14T17:59:22;8.90;99.90
19330;DHT22;9799;48.214;16.388;2023-12-14T18:02:43;8.90;99.90
19330;DHT22;9799;48.214;16.388;2023-12-14T18:06:06;9.00;99.90
19330;DHT22;9799;48.214;16.388;2023-12-14T18:09:27;8.90;99.90
19330;DHT22;9799;48.214;16.388;2023-12-14T18:12:51;8.80;99.90
19330;DHT22;9799;48.214;16.388;2023-12-14T18:16:12;8.80;99.90
19330;DHT22;9799;48.214;16.388;2023-12-14T18:19:33;8.70;99.90
19330;DHT22;9799;48.214;16.388;2023-12-14T18:22:56;8.80;99.90
19330;DHT22;9799;48.214;16.388;2023-12-14T18:26:17;8.80;99.90
19330;DHT22;9799;48.214;16.388;2023-12-14T18:29:39;8.80;99.90
19330;DHT22;9799;48.214;16.388;2023-12-14T18:33:01;8.80;99.90
19330;DHT22;9799;48.214;16.388;2023-12-14T18:36:22;8.80;99.90
19330;DHT22;9799;48.214;16.388;2023-12-14T18:39:46;8.80;99.90
19330;DHT22;9799;48.214;16.388;2023-12-14T18:43:08;8.70;99.90
19330;DHT22;9799;48.214;16.388;2023-12-14T18:46:30;8.70;99.90
19330;DHT22;9799;48.214;16.388;2023-12-14T18:49:52;8.70;99.90
19330;DHT22;9799;48.214;16.388;2023-12-14T18:53:14;8.60;99.90
19330;DHT22;9799;48.214;16.388;2023-12-14T18:56:38;8.60;99.90
19330;DHT22;9799;48.214;16.388;2023-12-14T19:00:00;8.60;99.90
19330;DHT22;9799;48.214;16.388;2023-12-14T19:03:23;8.50;99.90
19330;DHT22;9799;48.214;16.388;2023-12-14T19:06:46;8.60;99.90
19330;DHT22;9799;48.214;16.388;2023-12-14T19:10:08;8.60;99.90
19330;DHT22;9799;48.214;16.388;2023-12-14T19:13:34;8.60;99.90
19330;DHT22;9799;48.214;16.388;2023-12-14T19:16:57;8.60;99.90
19330;DHT22;9799;48.214;16.388;2023-12-14T19:20:19;8.50;99.90
19330;DHT22;9799;48.214;16.388;2023-12-14T19:23:42;8.60;99.90
19330;DHT22;9799;48.214;16.388;2023-12-14T19:27:05;8.60;99.90
19330;DHT22;9799;48.214;16.388;2023-12-14T19:30:28;8.50;99.90
19330;DHT22;9799;48.214;16.388;2023-12-14T19:33:50;8.60;99.90
19330;DHT22;9799;48.214;16.388;2023-12-14T19:37:12;8.60;99.90
19330;DHT22;9799;48.214;16.388;2023-12-14T19:40:35;8.60;99.90
19330;DHT22;9799;48.214;16.388;2023-12-14T19:43:58;8.60;99.90
19330;DHT22;9799;48.214;16.388;2023-12-14T19:47:24;8.60;99.90
19330;DHT22;9799;48.214;16.388;2023-12-14T19:50:47;8.60;99.90
19330;DHT22;9799;48.214;16.388;2023-12-14T19:54:10;8.60;99.90
19330;DHT22;9799;48.214;16.388;2023-12-14T19:57:33;8.70;99.90
19330;DHT22;9799;48.214;16.388;2023-12-14T20:00:56;8.60;99.90
19330;DHT22;9799;48.214;16.388;2023-12-14T20:04:20;8.60;99.90
19330;DHT22;9799;48.214;16.388;2023-12-14T20:07:43;8.70;99.90
19330;DHT22;9799;48.214;16.388;2023-12-14T20:11:05;8.70;99.90
19330;DHT22;9799;48.214;16.388;2023-12-14T20:14:28;8.70;99.90
19330;DHT22;9799;48.214;16.388;2023-12-14T20:17:51;8.70;99.90
19330;DHT22;9799;48.214;16.388;2023-12-14T20:21:15;8.70;99.90
19330;DHT22;9799;48.214;16.388;2023-12-14T20:24:37;8.70;99.90
19330;DHT22;9799;48.214;16.388;2023-12-14T20:28:00;8.80;99.90
19330;DHT22;9799;48.214;16.388;2023-12-14T20:31:23;8.80;99.90
19330;DHT22;9799;48.214;16.388;2023-12-14T20:34:45;8.70;99.90
19330;DHT22;9799;48.214;16.388;2023-12-14T20:38:09;8.70;99.90
19330;DHT22;9799;48.214;16.388;2023-12-14T20:41:30;8.70;99.90
19330;DHT22;9799;48.214;16.388;2023-12-14T20:44:51;8.70;99.90
19330;DHT22;9799;48.214;16.388;2023-12-14T20:48:12;8.70;99.90
19330;DHT22;9799;48.214;16.388;2023-12-14T20:51:34;8.70;99.90
19330;DHT22;9799;48.214;16.388;2023-12-14T20:54:57;8.70;99.90
19330;DHT22;9799;48.214;16.388;2023-12-14T20:58:19;8.70;99.90
19330;DHT22;9799;48.214;16.388;2023-12-14T21:01:41;8.80;99.90
19330;DHT22;9799;48.214;16.388;2023-12-14T21:05:03;8.80;99.90
19330;DHT22;9799;48.214;16.388;2023-12-14T21:08:24;8.80;99.90
19330;DHT22;9799;48.214;16.388;2023-12-14T21:11:47;8.80;99.90
19330;DHT22;9799;48.214;16.388;2023-12-14T21:15:08;8.80;99.90
19330;DHT22;9799;48.214;16.388;2023-12-14T21:18:29;8.80;99.90
19330;DHT22;9799;48.214;16.388;2023-12-14T21:21:50;8.80;99.90
19330;DHT22;9799;48.214;16.388;2023-12-14T21:25:12;8.90;99.90
19330;DHT22;9799;48.214;16.388;2023-12-14T21:28:36;8.80;99.90
19330;DHT22;9799;48.214;16.388;2023-12-14T21:31:57;8.80;99.90
19330;DHT22;9799;48.214;16.388;2023-12-14T21:35:18;8.80;99.90